الصفحة الرئيسية
METAR-TAF:

METAR-TAF

مطار :

مطار جوليوس نيريري

دار السلام, تنزانيا

دائرة عرض: 06-52S, خط طول: 039-12E, ارتفاع: 55 متر

مراقبة الطقس الحالي

تاريخ ووقت الإصدار 53 دقيقة قبل الساعة 14:00UTC
ريح 6 عقدة من الشمال الشرقي
درجة الحرارة 32°درجة مئوية
الرطوبة 67%
ضغط 1012 hPa
الرؤية 10 كم أو أكثر
غيوم متفرقة على ارتفاع 2000 قدم

METAR: HTDA 141400Z 04006KT 9999 SCT020 32/25 Q1012 NOSIG

زمن: 17:53 (14:53 UTC)

توقعات

تاريخ ووقت الإصدار 3ساعات و 53 دقيقة قبل الساعة 11:00UTC
التوقعات صالحة من14 الساعة 12 UTC إلى 15 الساعة 18 UTC
ريح 10 عقدة من الشمال/الشمال الشرقي
الرؤية 10 كم أو أكثر
غيوم مفككة على ارتفاع 2500 قدم
غيوم قليلة على ارتفاع 2600 قدم, مزنة ركامية.
أصبح
من 14 الساعة 16 UTC إلى 14 الساعة 18 UTC
غيوم متفرقة على ارتفاع 1900 قدم
أصبح
من 15 الساعة 04 UTC إلى 15 الساعة 07 UTC
غيوم مفككة على ارتفاع 2100 قدم
غيوم قليلة على ارتفاع 2200 قدم, مزنة ركامية.

TAF: HTDA 141100Z 1412/1518 03010KT 9999 BKN025 FEW026CB BECMG 1416/1418 SCT019 BECMG 1504/1507 BKN021 FEW022CB

أرصاد الطقس والتوقعات من أكثر من 4000 مطار (تقارير الطقس للمطار METAR والتنبؤ بالطقس بالمطارTAF).

المحطات المتاحة هي النقط الصفراء والحمراء على الخريطة.

حرك المؤشر فوق النقطة لمعرفة اسم المحطة.

ثم انقر لمعرفة أرصاد وتوقعات الطقس.

لتغيير الخارطة: اضغط على الأزرار الخضراء مع رمز الصليب الأسود للتكبير. على الزر الأخضر مع شرطة للتصغير، أو على الأسهم الخضراء للخرائط المجاورة.


METAR-TAF: